sensor_id;sensor_type;location;lat;lon;timestamp;P1;durP1;ratioP1;P2;durP2;ratioP2
82727;SDS011;72459;50.110;8.750;2023-09-18T00:00:58;9.20;;;4.90;;
82727;SDS011;72459;50.110;8.750;2023-09-18T00:03:24;8.05;;;5.00;;
82727;SDS011;72459;50.110;8.750;2023-09-18T00:05:50;6.82;;;5.18;;
82727;SDS011;72459;50.110;8.750;2023-09-18T00:08:17;7.53;;;4.75;;
82727;SDS011;72459;50.110;8.750;2023-09-18T00:10:47;7.22;;;4.93;;
82727;SDS011;72459;50.110;8.750;2023-09-18T00:13:14;5.80;;;4.68;;
82727;SDS011;72459;50.110;8.750;2023-09-18T00:15:39;7.53;;;5.05;;
82727;SDS011;72459;50.110;8.750;2023-09-18T00:18:06;7.85;;;4.90;;
82727;SDS011;72459;50.110;8.750;2023-09-18T00:20:32;8.25;;;5.00;;
82727;SDS011;72459;50.110;8.750;2023-09-18T00:22:57;8.93;;;5.63;;
82727;SDS011;72459;50.110;8.750;2023-09-18T00:25:23;8.25;;;5.25;;
82727;SDS011;72459;50.110;8.750;2023-09-18T00:27:48;7.47;;;4.60;;
82727;SDS011;72459;50.110;8.750;2023-09-18T00:30:14;9.02;;;4.70;;
82727;SDS011;72459;50.110;8.750;2023-09-18T00:32:39;7.50;;;4.53;;
82727;SDS011;72459;50.110;8.750;2023-09-18T00:35:05;6.95;;;4.38;;
82727;SDS011;72459;50.110;8.750;2023-09-18T00:37:31;7.30;;;4.65;;
82727;SDS011;72459;50.110;8.750;2023-09-18T00:39:56;6.05;;;4.65;;
82727;SDS011;72459;50.110;8.750;2023-09-18T00:42:21;9.45;;;4.63;;
82727;SDS011;72459;50.110;8.750;2023-09-18T00:44:47;7.88;;;4.38;;
82727;SDS011;72459;50.110;8.750;2023-09-18T00:47:13;6.95;;;4.97;;
82727;SDS011;72459;50.110;8.750;2023-09-18T00:49:40;5.47;;;3.97;;
82727;SDS011;72459;50.110;8.750;2023-09-18T00:52:08;7.00;;;4.22;;
82727;SDS011;72459;50.110;8.750;2023-09-18T00:54:35;7.70;;;4.28;;
82727;SDS011;72459;50.110;8.750;2023-09-18T00:57:03;8.50;;;4.35;;
82727;SDS011;72459;50.110;8.750;2023-09-18T00:59:29;7.53;;;4.45;;
82727;SDS011;72459;50.110;8.750;2023-09-18T01:01:56;8.63;;;4.78;;
82727;SDS011;72459;50.110;8.750;2023-09-18T01:04:21;6.88;;;4.70;;
82727;SDS011;72459;50.110;8.750;2023-09-18T01:06:47;7.05;;;4.93;;
82727;SDS011;72459;50.110;8.750;2023-09-18T01:09:14;9.90;;;4.28;;
82727;SDS011;72459;50.110;8.750;2023-09-18T01:11:54;7.47;;;5.00;;
82727;SDS011;72459;50.110;8.750;2023-09-18T01:17:13;7.55;;;4.63;;
82727;SDS011;72459;50.110;8.750;2023-09-18T01:22:06;7.97;;;4.63;;
82727;SDS011;72459;50.110;8.750;2023-09-18T01:24:36;5.93;;;4.40;;
82727;SDS011;72459;50.110;8.750;2023-09-18T01:27:03;8.32;;;4.90;;
82727;SDS011;72459;50.110;8.750;2023-09-18T01:29:30;6.05;;;4.25;;
82727;SDS011;72459;50.110;8.750;2023-09-18T01:31:56;6.60;;;4.18;;
82727;SDS011;72459;50.110;8.750;2023-09-18T01:34:23;9.00;;;4.43;;
82727;SDS011;72459;50.110;8.750;2023-09-18T01:36:51;7.13;;;4.65;;
82727;SDS011;72459;50.110;8.750;2023-09-18T01:39:17;8.32;;;4.90;;
82727;SDS011;72459;50.110;8.750;2023-09-18T01:41:45;6.53;;;4.80;;
82727;SDS011;72459;50.110;8.750;2023-09-18T01:44:10;6.30;;;4.38;;
82727;SDS011;72459;50.110;8.750;2023-09-18T01:46:36;6.93;;;4.30;;
82727;SDS011;72459;50.110;8.750;2023-09-18T01:49:03;7.22;;;4.47;;
82727;SDS011;72459;50.110;8.750;2023-09-18T01:51:28;6.55;;;4.40;;
82727;SDS011;72459;50.110;8.750;2023-09-18T01:53:55;6.72;;;4.18;;
82727;SDS011;72459;50.110;8.750;2023-09-18T01:56:20;5.43;;;4.47;;
82727;SDS011;72459;50.110;8.750;2023-09-18T01:58:47;5.68;;;4.43;;
82727;SDS011;72459;50.110;8.750;2023-09-18T02:01:13;7.25;;;4.15;;
82727;SDS011;72459;50.110;8.750;2023-09-18T02:03:38;6.43;;;4.60;;
82727;SDS011;72459;50.110;8.750;2023-09-18T02:06:09;5.57;;;4.18;;
82727;SDS011;72459;50.110;8.750;2023-09-18T02:08:35;6.18;;;4.60;;
82727;SDS011;72459;50.110;8.750;2023-09-18T02:11:00;6.20;;;4.20;;
82727;SDS011;72459;50.110;8.750;2023-09-18T02:13:26;5.60;;;4.35;;
82727;SDS011;72459;50.110;8.750;2023-09-18T02:15:51;6.22;;;4.50;;
82727;SDS011;72459;50.110;8.750;2023-09-18T02:18:17;8.05;;;4.63;;
82727;SDS011;72459;50.110;8.750;2023-09-18T02:20:43;5.32;;;4.38;;
82727;SDS011;72459;50.110;8.750;2023-09-18T02:23:12;6.43;;;4.25;;
82727;SDS011;72459;50.110;8.750;2023-09-18T02:25:38;5.68;;;4.20;;
82727;SDS011;72459;50.110;8.750;2023-09-18T02:28:05;11.68;;;5.43;;
82727;SDS011;72459;50.110;8.750;2023-09-18T02:30:31;7.22;;;4.97;;
82727;SDS011;72459;50.110;8.750;2023-09-18T02:32:56;10.38;;;5.00;;
82727;SDS011;72459;50.110;8.750;2023-09-18T02:35:21;8.43;;;4.38;;
82727;SDS011;72459;50.110;8.750;2023-09-18T02:37:47;6.05;;;4.05;;
82727;SDS011;72459;50.110;8.750;2023-09-18T02:40:12;6.33;;;3.97;;
82727;SDS011;72459;50.110;8.750;2023-09-18T02:42:38;6.60;;;4.32;;
82727;SDS011;72459;50.110;8.750;2023-09-18T02:45:03;6.80;;;4.28;;
82727;SDS011;72459;50.110;8.750;2023-09-18T02:47:29;5.43;;;4.05;;
82727;SDS011;72459;50.110;8.750;2023-09-18T02:49:54;5.53;;;3.67;;
82727;SDS011;72459;50.110;8.750;2023-09-18T02:52:20;6.55;;;4.15;;
82727;SDS011;72459;50.110;8.750;2023-09-18T02:54:45;7.87;;;5.20;;
82727;SDS011;72459;50.110;8.750;2023-09-18T02:57:11;5.25;;;4.05;;
82727;SDS011;72459;50.110;8.750;2023-09-18T02:59:36;4.60;;;3.80;;
82727;SDS011;72459;50.110;8.750;2023-09-18T03:02:02;9.52;;;4.82;;
82727;SDS011;72459;50.110;8.750;2023-09-18T03:04:28;6.38;;;5.07;;
82727;SDS011;72459;50.110;8.750;2023-09-18T03:06:55;7.20;;;5.53;;
82727;SDS011;72459;50.110;8.750;2023-09-18T03:09:20;10.13;;;5.32;;
82727;SDS011;72459;50.110;8.750;2023-09-18T03:11:46;6.68;;;5.63;;
82727;SDS011;72459;50.110;8.750;2023-09-18T03:14:11;8.55;;;5.93;;
82727;SDS011;72459;50.110;8.750;2023-09-18T03:16:37;10.20;;;5.80;;
82727;SDS011;72459;50.110;8.750;2023-09-18T03:19:02;6.90;;;4.88;;
82727;SDS011;72459;50.110;8.750;2023-09-18T03:21:28;9.10;;;5.13;;
82727;SDS011;72459;50.110;8.750;2023-09-18T03:23:53;11.40;;;7.53;;
82727;SDS011;72459;50.110;8.750;2023-09-18T03:26:19;9.95;;;5.55;;
82727;SDS011;72459;50.110;8.750;2023-09-18T03:28:44;8.43;;;5.78;;
82727;SDS011;72459;50.110;8.750;2023-09-18T03:31:09;7.43;;;5.60;;
82727;SDS011;72459;50.110;8.750;2023-09-18T03:33:35;9.97;;;5.87;;
82727;SDS011;72459;50.110;8.750;2023-09-18T03:36:00;8.82;;;5.95;;
82727;SDS011;72459;50.110;8.750;2023-09-18T03:38:25;9.98;;;6.80;;
82727;SDS011;72459;50.110;8.750;2023-09-18T03:40:51;7.03;;;5.65;;
82727;SDS011;72459;50.110;8.750;2023-09-18T03:43:16;11.00;;;6.25;;
82727;SDS011;72459;50.110;8.750;2023-09-18T03:45:42;9.23;;;6.93;;
82727;SDS011;72459;50.110;8.750;2023-09-18T03:48:08;9.35;;;5.80;;
82727;SDS011;72459;50.110;8.750;2023-09-18T03:50:33;8.98;;;6.05;;
82727;SDS011;72459;50.110;8.750;2023-09-18T03:52:58;8.45;;;4.97;;
82727;SDS011;72459;50.110;8.750;2023-09-18T03:55:24;10.00;;;5.32;;
82727;SDS011;72459;50.110;8.750;2023-09-18T03:57:52;6.07;;;4.30;;
82727;SDS011;72459;50.110;8.750;2023-09-18T04:02:42;7.13;;;4.20;;
82727;SDS011;72459;50.110;8.750;2023-09-18T04:05:08;8.52;;;4.93;;
82727;SDS011;72459;50.110;8.750;2023-09-18T04:07:34;7.43;;;4.53;;
82727;SDS011;72459;50.110;8.750;2023-09-18T04:09:59;9.23;;;4.28;;
82727;SDS011;72459;50.110;8.750;2023-09-18T04:12:25;10.47;;;5.07;;
82727;SDS011;72459;50.110;8.750;2023-09-18T04:14:50;6.97;;;4.60;;
82727;SDS011;72459;50.110;8.750;2023-09-18T04:17:16;9.40;;;4.90;;
82727;SDS011;72459;50.110;8.750;2023-09-18T04:19:41;8.98;;;5.00;;
82727;SDS011;72459;50.110;8.750;2023-09-18T04:22:08;8.77;;;4.57;;
82727;SDS011;72459;50.110;8.750;2023-09-18T04:24:33;7.95;;;4.45;;
82727;SDS011;72459;50.110;8.750;2023-09-18T04:26:59;6.75;;;5.28;;
82727;SDS011;72459;50.110;8.750;2023-09-18T04:29:24;11.50;;;5.95;;
82727;SDS011;72459;50.110;8.750;2023-09-18T04:31:51;8.75;;;4.63;;
82727;SDS011;72459;50.110;8.750;2023-09-18T04:34:18;7.40;;;4.07;;
82727;SDS011;72459;50.110;8.750;2023-09-18T04:36:44;7.88;;;5.03;;
82727;SDS011;72459;50.110;8.750;2023-09-18T04:39:09;7.68;;;4.78;;
82727;SDS011;72459;50.110;8.750;2023-09-18T04:41:34;9.23;;;5.43;;
82727;SDS011;72459;50.110;8.750;2023-09-18T04:44:00;9.43;;;5.30;;
82727;SDS011;72459;50.110;8.750;2023-09-18T04:46:25;7.20;;;4.05;;
82727;SDS011;72459;50.110;8.750;2023-09-18T04:48:53;6.55;;;4.57;;
82727;SDS011;72459;50.110;8.750;2023-09-18T04:51:20;8.07;;;5.15;;
82727;SDS011;72459;50.110;8.750;2023-09-18T04:53:45;9.05;;;4.72;;
82727;SDS011;72459;50.110;8.750;2023-09-18T04:56:11;6.35;;;4.88;;
82727;SDS011;72459;50.110;8.750;2023-09-18T04:58:37;7.50;;;4.65;;
82727;SDS011;72459;50.110;8.750;2023-09-18T05:01:02;8.40;;;4.80;;
82727;SDS011;72459;50.110;8.750;2023-09-18T05:03:30;7.25;;;5.15;;
82727;SDS011;72459;50.110;8.750;2023-09-18T05:05:56;7.90;;;4.25;;
82727;SDS011;72459;50.110;8.750;2023-09-18T05:08:21;9.00;;;4.57;;
82727;SDS011;72459;50.110;8.750;2023-09-18T05:10:47;10.25;;;4.50;;
82727;SDS011;72459;50.110;8.750;2023-09-18T05:13:12;8.43;;;4.40;;
82727;SDS011;72459;50.110;8.750;2023-09-18T05:15:38;6.85;;;4.00;;
82727;SDS011;72459;50.110;8.750;2023-09-18T05:18:03;7.82;;;4.32;;
82727;SDS011;72459;50.110;8.750;2023-09-18T05:20:29;7.38;;;4.10;;
82727;SDS011;72459;50.110;8.750;2023-09-18T05:22:57;6.35;;;4.35;;
82727;SDS011;72459;50.110;8.750;2023-09-18T05:25:24;7.90;;;5.03;;
82727;SDS011;72459;50.110;8.750;2023-09-18T05:27:51;11.50;;;5.32;;
82727;SDS011;72459;50.110;8.750;2023-09-18T05:30:23;9.02;;;4.95;;
82727;SDS011;72459;50.110;8.750;2023-09-18T05:32:53;8.07;;;4.85;;
82727;SDS011;72459;50.110;8.750;2023-09-18T05:35:19;9.50;;;5.10;;
82727;SDS011;72459;50.110;8.750;2023-09-18T05:37:46;8.48;;;6.00;;
82727;SDS011;72459;50.110;8.750;2023-09-18T05:40:11;7.15;;;4.50;;
82727;SDS011;72459;50.110;8.750;2023-09-18T05:42:38;9.45;;;4.05;;
82727;SDS011;72459;50.110;8.750;2023-09-18T05:45:08;8.68;;;3.80;;
82727;SDS011;72459;50.110;8.750;2023-09-18T05:47:33;5.53;;;3.03;;
82727;SDS011;72459;50.110;8.750;2023-09-18T05:50:00;7.07;;;3.67;;
82727;SDS011;72459;50.110;8.750;2023-09-18T05:52:30;9.43;;;3.72;;
82727;SDS011;72459;50.110;8.750;2023-09-18T05:54:56;5.50;;;3.20;;
82727;SDS011;72459;50.110;8.750;2023-09-18T05:57:21;6.57;;;3.20;;
82727;SDS011;72459;50.110;8.750;2023-09-18T05:59:46;8.23;;;3.35;;
82727;SDS011;72459;50.110;8.750;2023-09-18T06:02:13;7.40;;;3.25;;
82727;SDS011;72459;50.110;8.750;2023-09-18T06:04:38;9.52;;;3.22;;
82727;SDS011;72459;50.110;8.750;2023-09-18T06:07:03;6.88;;;3.10;;
82727;SDS011;72459;50.110;8.750;2023-09-18T06:09:29;8.32;;;3.40;;
82727;SDS011;72459;50.110;8.750;2023-09-18T06:11:54;10.48;;;3.08;;
82727;SDS011;72459;50.110;8.750;2023-09-18T06:14:20;9.93;;;3.30;;
82727;SDS011;72459;50.110;8.750;2023-09-18T06:16:45;6.88;;;3.17;;
82727;SDS011;72459;50.110;8.750;2023-09-18T06:19:10;8.93;;;3.20;;
82727;SDS011;72459;50.110;8.750;2023-09-18T06:21:36;10.15;;;2.97;;
82727;SDS011;72459;50.110;8.750;2023-09-18T06:24:01;7.95;;;3.53;;
82727;SDS011;72459;50.110;8.750;2023-09-18T06:26:27;7.60;;;2.75;;
82727;SDS011;72459;50.110;8.750;2023-09-18T06:28:52;6.45;;;2.90;;
82727;SDS011;72459;50.110;8.750;2023-09-18T06:31:19;9.15;;;3.17;;
82727;SDS011;72459;50.110;8.750;2023-09-18T06:33:45;5.95;;;2.75;;
82727;SDS011;72459;50.110;8.750;2023-09-18T06:36:11;7.75;;;2.88;;
82727;SDS011;72459;50.110;8.750;2023-09-18T06:38:36;9.55;;;3.13;;
82727;SDS011;72459;50.110;8.750;2023-09-18T06:41:01;9.25;;;2.85;;
82727;SDS011;72459;50.110;8.750;2023-09-18T06:43:28;10.48;;;4.15;;
82727;SDS011;72459;50.110;8.750;2023-09-18T06:45:53;11.48;;;3.80;;
82727;SDS011;72459;50.110;8.750;2023-09-18T06:48:19;8.02;;;3.15;;
82727;SDS011;72459;50.110;8.750;2023-09-18T06:50:47;10.60;;;4.82;;
82727;SDS011;72459;50.110;8.750;2023-09-18T06:53:13;9.40;;;3.90;;
82727;SDS011;72459;50.110;8.750;2023-09-18T06:55:38;8.63;;;3.23;;
82727;SDS011;72459;50.110;8.750;2023-09-18T06:58:04;6.88;;;2.80;;
82727;SDS011;72459;50.110;8.750;2023-09-18T07:00:29;9.00;;;2.53;;
82727;SDS011;72459;50.110;8.750;2023-09-18T07:02:55;6.20;;;2.90;;
82727;SDS011;72459;50.110;8.750;2023-09-18T07:05:20;8.60;;;2.90;;
82727;SDS011;72459;50.110;8.750;2023-09-18T07:07:46;7.13;;;3.35;;
82727;SDS011;72459;50.110;8.750;2023-09-18T07:10:11;5.97;;;2.43;;
82727;SDS011;72459;50.110;8.750;2023-09-18T07:12:37;9.25;;;2.38;;
82727;SDS011;72459;50.110;8.750;2023-09-18T07:15:02;8.00;;;2.53;;
82727;SDS011;72459;50.110;8.750;2023-09-18T07:17:28;9.55;;;2.58;;
82727;SDS011;72459;50.110;8.750;2023-09-18T07:19:54;9.82;;;2.97;;
82727;SDS011;72459;50.110;8.750;2023-09-18T07:22:19;8.60;;;2.95;;
82727;SDS011;72459;50.110;8.750;2023-09-18T07:24:45;8.15;;;2.33;;
82727;SDS011;72459;50.110;8.750;2023-09-18T07:27:11;7.68;;;2.30;;
82727;SDS011;72459;50.110;8.750;2023-09-18T07:29:36;8.43;;;2.90;;
82727;SDS011;72459;50.110;8.750;2023-09-18T07:32:01;8.70;;;2.83;;
82727;SDS011;72459;50.110;8.750;2023-09-18T07:34:27;9.00;;;2.25;;
82727;SDS011;72459;50.110;8.750;2023-09-18T07:36:52;7.03;;;2.90;;
82727;SDS011;72459;50.110;8.750;2023-09-18T07:39:20;7.22;;;2.35;;
82727;SDS011;72459;50.110;8.750;2023-09-18T07:41:46;9.88;;;2.35;;
82727;SDS011;72459;50.110;8.750;2023-09-18T07:44:12;10.30;;;2.55;;
82727;SDS011;72459;50.110;8.750;2023-09-18T07:46:44;8.23;;;2.83;;
82727;SDS011;72459;50.110;8.750;2023-09-18T07:49:10;7.88;;;2.65;;
82727;SDS011;72459;50.110;8.750;2023-09-18T07:51:35;6.80;;;2.38;;
82727;SDS011;72459;50.110;8.750;2023-09-18T07:54:01;7.63;;;2.40;;
82727;SDS011;72459;50.110;8.750;2023-09-18T07:56:27;7.47;;;2.60;;
82727;SDS011;72459;50.110;8.750;2023-09-18T07:58:53;8.25;;;2.78;;
82727;SDS011;72459;50.110;8.750;2023-09-18T08:01:19;8.75;;;2.70;;
82727;SDS011;72459;50.110;8.750;2023-09-18T08:03:47;7.93;;;2.70;;
82727;SDS011;72459;50.110;8.750;2023-09-18T08:06:12;10.35;;;3.22;;
82727;SDS011;72459;50.110;8.750;2023-09-18T08:08:40;8.85;;;2.30;;
82727;SDS011;72459;50.110;8.750;2023-09-18T08:11:09;6.90;;;2.45;;
82727;SDS011;72459;50.110;8.750;2023-09-18T08:13:34;10.23;;;2.45;;
82727;SDS011;72459;50.110;8.750;2023-09-18T08:16:00;7.25;;;2.53;;
82727;SDS011;72459;50.110;8.750;2023-09-18T08:18:26;8.93;;;2.58;;
82727;SDS011;72459;50.110;8.750;2023-09-18T08:20:52;9.25;;;2.20;;
82727;SDS011;72459;50.110;8.750;2023-09-18T08:23:19;8.40;;;2.70;;
82727;SDS011;72459;50.110;8.750;2023-09-18T08:25:44;8.47;;;2.17;;
82727;SDS011;72459;50.110;8.750;2023-09-18T08:28:10;6.13;;;2.42;;
82727;SDS011;72459;50.110;8.750;2023-09-18T08:30:35;6.13;;;2.07;;
82727;SDS011;72459;50.110;8.750;2023-09-18T08:33:02;8.50;;;2.83;;
82727;SDS011;72459;50.110;8.750;2023-09-18T08:35:27;7.68;;;2.22;;
82727;SDS011;72459;50.110;8.750;2023-09-18T08:37:55;6.18;;;2.28;;
82727;SDS011;72459;50.110;8.750;2023-09-18T08:40:21;7.05;;;2.17;;
82727;SDS011;72459;50.110;8.750;2023-09-18T08:42:48;8.63;;;2.97;;
82727;SDS011;72459;50.110;8.750;2023-09-18T08:45:27;7.05;;;2.08;;
82727;SDS011;72459;50.110;8.750;2023-09-18T08:48:00;5.43;;;1.92;;
82727;SDS011;72459;50.110;8.750;2023-09-18T08:50:26;7.97;;;1.65;;
82727;SDS011;72459;50.110;8.750;2023-09-18T08:52:52;7.10;;;1.80;;
82727;SDS011;72459;50.110;8.750;2023-09-18T08:55:19;6.47;;;1.60;;
82727;SDS011;72459;50.110;8.750;2023-09-18T08:57:44;8.73;;;2.15;;
82727;SDS011;72459;50.110;8.750;2023-09-18T09:00:11;4.25;;;1.73;;
82727;SDS011;72459;50.110;8.750;2023-09-18T09:02:42;7.35;;;1.80;;
82727;SDS011;72459;50.110;8.750;2023-09-18T09:05:10;8.77;;;1.98;;
82727;SDS011;72459;50.110;8.750;2023-09-18T09:07:36;5.93;;;2.05;;
82727;SDS011;72459;50.110;8.750;2023-09-18T09:10:02;8.60;;;1.90;;
82727;SDS011;72459;50.110;8.750;2023-09-18T09:15:24;4.80;;;1.25;;
82727;SDS011;72459;50.110;8.750;2023-09-18T09:17:52;5.22;;;1.60;;
82727;SDS011;72459;50.110;8.750;2023-09-18T09:20:27;9.90;;;1.60;;
82727;SDS011;72459;50.110;8.750;2023-09-18T09:22:52;6.47;;;1.63;;
82727;SDS011;72459;50.110;8.750;2023-09-18T09:25:29;6.78;;;2.10;;
82727;SDS011;72459;50.110;8.750;2023-09-18T09:28:00;3.70;;;1.30;;
82727;SDS011;72459;50.110;8.750;2023-09-18T09:30:29;5.40;;;2.00;;
82727;SDS011;72459;50.110;8.750;2023-09-18T09:32:56;4.30;;;1.92;;
82727;SDS011;72459;50.110;8.750;2023-09-18T09:35:26;3.85;;;1.92;;
82727;SDS011;72459;50.110;8.750;2023-09-18T09:37:53;5.95;;;1.58;;
82727;SDS011;72459;50.110;8.750;2023-09-18T09:40:21;7.68;;;1.75;;
82727;SDS011;72459;50.110;8.750;2023-09-18T09:42:48;4.97;;;1.85;;
82727;SDS011;72459;50.110;8.750;2023-09-18T09:45:16;4.97;;;1.83;;
82727;SDS011;72459;50.110;8.750;2023-09-18T09:47:43;7.15;;;1.50;;
82727;SDS011;72459;50.110;8.750;2023-09-18T09:50:09;5.15;;;1.73;;
82727;SDS011;72459;50.110;8.750;2023-09-18T09:52:48;6.82;;;1.35;;
82727;SDS011;72459;50.110;8.750;2023-09-18T09:55:31;8.63;;;2.05;;
82727;SDS011;72459;50.110;8.750;2023-09-18T09:58:02;7.15;;;1.80;;
82727;SDS011;72459;50.110;8.750;2023-09-18T10:00:31;7.40;;;1.85;;
82727;SDS011;72459;50.110;8.750;2023-09-18T10:03:07;5.57;;;1.77;;
82727;SDS011;72459;50.110;8.750;2023-09-18T10:05:40;4.38;;;1.30;;
82727;SDS011;72459;50.110;8.750;2023-09-18T10:08:23;6.82;;;1.83;;
82727;SDS011;72459;50.110;8.750;2023-09-18T10:10:54;5.63;;;1.85;;
82727;SDS011;72459;50.110;8.750;2023-09-18T10:13:27;5.22;;;1.90;;
82727;SDS011;72459;50.110;8.750;2023-09-18T10:16:04;6.13;;;1.73;;
82727;SDS011;72459;50.110;8.750;2023-09-18T10:18:38;5.60;;;1.67;;
82727;SDS011;72459;50.110;8.750;2023-09-18T10:23:46;4.88;;;1.42;;
82727;SDS011;72459;50.110;8.750;2023-09-18T10:26:16;5.75;;;1.50;;
82727;SDS011;72459;50.110;8.750;2023-09-18T10:28:48;6.15;;;1.80;;
82727;SDS011;72459;50.110;8.750;2023-09-18T10:31:17;5.25;;;1.48;;
82727;SDS011;72459;50.110;8.750;2023-09-18T10:33:43;3.55;;;1.40;;
82727;SDS011;72459;50.110;8.750;2023-09-18T10:36:09;3.92;;;1.17;;
82727;SDS011;72459;50.110;8.750;2023-09-18T10:38:37;4.65;;;1.40;;
82727;SDS011;72459;50.110;8.750;2023-09-18T10:41:04;5.50;;;1.30;;
82727;SDS011;72459;50.110;8.750;2023-09-18T10:43:33;3.60;;;1.10;;
82727;SDS011;72459;50.110;8.750;2023-09-18T10:45:58;5.05;;;1.30;;
82727;SDS011;72459;50.110;8.750;2023-09-18T10:48:24;4.78;;;1.00;;
82727;SDS011;72459;50.110;8.750;2023-09-18T10:50:50;6.15;;;1.00;;
82727;SDS011;72459;50.110;8.750;2023-09-18T10:53:17;2.92;;;1.00;;
82727;SDS011;72459;50.110;8.750;2023-09-18T10:55:44;5.05;;;0.93;;
82727;SDS011;72459;50.110;8.750;2023-09-18T10:58:10;4.80;;;1.02;;
82727;SDS011;72459;50.110;8.750;2023-09-18T11:00:35;3.88;;;1.20;;
82727;SDS011;72459;50.110;8.750;2023-09-18T11:03:21;2.35;;;0.85;;
82727;SDS011;72459;50.110;8.750;2023-09-18T11:05:48;2.75;;;0.90;;
82727;SDS011;72459;50.110;8.750;2023-09-18T11:13:50;2.85;;;0.93;;
82727;SDS011;72459;50.110;8.750;2023-09-18T11:18:54;5.18;;;1.10;;
82727;SDS011;72459;50.110;8.750;2023-09-18T11:21:32;2.00;;;0.73;;
82727;SDS011;72459;50.110;8.750;2023-09-18T11:26:28;3.33;;;0.83;;
82727;SDS011;72459;50.110;8.750;2023-09-18T11:29:00;5.78;;;1.00;;
82727;SDS011;72459;50.110;8.750;2023-09-18T11:34:25;2.65;;;0.73;;
82727;SDS011;72459;50.110;8.750;2023-09-18T11:36:58;3.47;;;0.90;;
82727;SDS011;72459;50.110;8.750;2023-09-18T11:44:34;3.95;;;0.95;;
82727;SDS011;72459;50.110;8.750;2023-09-18T11:47:01;5.78;;;0.90;;
82727;SDS011;72459;50.110;8.750;2023-09-18T11:49:29;2.85;;;0.90;;
82727;SDS011;72459;50.110;8.750;2023-09-18T11:52:00;3.65;;;0.90;;
82727;SDS011;72459;50.110;8.750;2023-09-18T11:54:27;3.15;;;0.80;;
82727;SDS011;72459;50.110;8.750;2023-09-18T11:56:54;2.42;;;0.73;;
82727;SDS011;72459;50.110;8.750;2023-09-18T11:59:32;2.78;;;1.10;;
82727;SDS011;72459;50.110;8.750;2023-09-18T12:02:06;1.73;;;0.90;;
82727;SDS011;72459;50.110;8.750;2023-09-18T12:04:32;2.88;;;0.85;;
82727;SDS011;72459;50.110;8.750;2023-09-18T12:06:58;2.80;;;0.80;;
82727;SDS011;72459;50.110;8.750;2023-09-18T12:09:30;2.90;;;0.73;;
82727;SDS011;72459;50.110;8.750;2023-09-18T12:11:57;3.67;;;1.25;;
82727;SDS011;72459;50.110;8.750;2023-09-18T12:14:29;2.00;;;0.82;;
82727;SDS011;72459;50.110;8.750;2023-09-18T12:16:55;2.13;;;1.00;;
82727;SDS011;72459;50.110;8.750;2023-09-18T12:19:22;1.95;;;1.00;;
82727;SDS011;72459;50.110;8.750;2023-09-18T12:21:48;4.40;;;1.02;;
82727;SDS011;72459;50.110;8.750;2023-09-18T12:24:24;4.43;;;1.00;;
82727;SDS011;72459;50.110;8.750;2023-09-18T12:26:53;2.42;;;0.90;;
82727;SDS011;72459;50.110;8.750;2023-09-18T12:29:19;2.95;;;0.88;;
82727;SDS011;72459;50.110;8.750;2023-09-18T12:31:46;2.08;;;0.98;;
82727;SDS011;72459;50.110;8.750;2023-09-18T12:34:18;3.47;;;1.17;;
82727;SDS011;72459;50.110;8.750;2023-09-18T12:36:46;3.50;;;1.13;;
82727;SDS011;72459;50.110;8.750;2023-09-18T12:39:16;2.72;;;0.80;;
82727;SDS011;72459;50.110;8.750;2023-09-18T12:41:45;3.20;;;1.10;;
82727;SDS011;72459;50.110;8.750;2023-09-18T12:44:12;3.83;;;1.77;;
82727;SDS011;72459;50.110;8.750;2023-09-18T12:46:39;3.75;;;1.63;;
82727;SDS011;72459;50.110;8.750;2023-09-18T12:49:42;3.58;;;1.35;;
82727;SDS011;72459;50.110;8.750;2023-09-18T12:52:01;4.82;;;1.30;;
82727;SDS011;72459;50.110;8.750;2023-09-18T12:54:38;2.42;;;1.10;;
82727;SDS011;72459;50.110;8.750;2023-09-18T12:57:05;3.03;;;1.00;;
82727;SDS011;72459;50.110;8.750;2023-09-18T12:59:32;3.25;;;1.00;;
82727;SDS011;72459;50.110;8.750;2023-09-18T13:02:00;5.18;;;1.73;;
82727;SDS011;72459;50.110;8.750;2023-09-18T13:04:26;3.40;;;1.20;;
82727;SDS011;72459;50.110;8.750;2023-09-18T13:09:29;4.05;;;0.90;;
82727;SDS011;72459;50.110;8.750;2023-09-18T13:11:57;2.53;;;1.05;;
82727;SDS011;72459;50.110;8.750;2023-09-18T13:14:23;3.38;;;1.10;;
82727;SDS011;72459;50.110;8.750;2023-09-18T13:16:49;3.13;;;1.00;;
82727;SDS011;72459;50.110;8.750;2023-09-18T13:19:15;2.67;;;1.10;;
82727;SDS011;72459;50.110;8.750;2023-09-18T13:21:47;5.13;;;1.23;;
82727;SDS011;72459;50.110;8.750;2023-09-18T13:24:29;4.68;;;1.13;;
82727;SDS011;72459;50.110;8.750;2023-09-18T13:26:56;6.32;;;1.48;;
82727;SDS011;72459;50.110;8.750;2023-09-18T13:29:23;2.78;;;1.13;;
82727;SDS011;72459;50.110;8.750;2023-09-18T13:31:49;4.55;;;1.30;;
82727;SDS011;72459;50.110;8.750;2023-09-18T13:34:16;2.95;;;1.25;;
82727;SDS011;72459;50.110;8.750;2023-09-18T13:36:47;2.95;;;1.20;;
82727;SDS011;72459;50.110;8.750;2023-09-18T13:39:13;3.63;;;1.38;;
82727;SDS011;72459;50.110;8.750;2023-09-18T13:41:42;5.25;;;1.20;;
82727;SDS011;72459;50.110;8.750;2023-09-18T13:44:08;3.28;;;1.10;;
82727;SDS011;72459;50.110;8.750;2023-09-18T13:46:34;5.50;;;1.23;;
82727;SDS011;72459;50.110;8.750;2023-09-18T13:49:01;1.70;;;1.40;;
82727;SDS011;72459;50.110;8.750;2023-09-18T13:51:29;2.45;;;0.90;;
82727;SDS011;72459;50.110;8.750;2023-09-18T13:53:56;2.58;;;1.20;;
82727;SDS011;72459;50.110;8.750;2023-09-18T13:56:22;5.90;;;1.50;;
82727;SDS011;72459;50.110;8.750;2023-09-18T13:58:47;4.60;;;1.60;;
82727;SDS011;72459;50.110;8.750;2023-09-18T14:01:13;3.75;;;1.02;;
82727;SDS011;72459;50.110;8.750;2023-09-18T14:03:40;3.28;;;1.20;;
82727;SDS011;72459;50.110;8.750;2023-09-18T14:06:08;4.65;;;1.30;;
82727;SDS011;72459;50.110;8.750;2023-09-18T14:08:34;4.05;;;1.35;;
82727;SDS011;72459;50.110;8.750;2023-09-18T14:10:59;3.53;;;1.35;;
82727;SDS011;72459;50.110;8.750;2023-09-18T14:13:25;3.60;;;1.10;;
82727;SDS011;72459;50.110;8.750;2023-09-18T14:15:50;3.67;;;1.60;;
82727;SDS011;72459;50.110;8.750;2023-09-18T14:18:16;4.43;;;1.25;;
82727;SDS011;72459;50.110;8.750;2023-09-18T14:20:41;3.38;;;1.27;;
82727;SDS011;72459;50.110;8.750;2023-09-18T14:23:07;3.42;;;1.15;;
82727;SDS011;72459;50.110;8.750;2023-09-18T14:25:33;4.65;;;1.15;;
82727;SDS011;72459;50.110;8.750;2023-09-18T14:27:58;4.85;;;1.15;;
82727;SDS011;72459;50.110;8.750;2023-09-18T14:30:24;5.45;;;1.13;;
82727;SDS011;72459;50.110;8.750;2023-09-18T14:32:54;3.38;;;1.20;;
82727;SDS011;72459;50.110;8.750;2023-09-18T14:35:20;4.53;;;1.13;;
82727;SDS011;72459;50.110;8.750;2023-09-18T14:37:45;4.90;;;1.30;;
82727;SDS011;72459;50.110;8.750;2023-09-18T14:40:11;3.03;;;1.25;;
82727;SDS011;72459;50.110;8.750;2023-09-18T14:42:37;3.10;;;1.00;;
82727;SDS011;72459;50.110;8.750;2023-09-18T14:45:02;5.30;;;1.25;;
82727;SDS011;72459;50.110;8.750;2023-09-18T14:47:28;4.22;;;1.63;;
82727;SDS011;72459;50.110;8.750;2023-09-18T14:49:54;4.03;;;1.50;;
82727;SDS011;72459;50.110;8.750;2023-09-18T14:52:20;3.70;;;1.00;;
82727;SDS011;72459;50.110;8.750;2023-09-18T14:54:48;3.38;;;1.25;;
82727;SDS011;72459;50.110;8.750;2023-09-18T14:57:14;3.42;;;1.10;;
82727;SDS011;72459;50.110;8.750;2023-09-18T14:59:39;4.87;;;1.50;;
82727;SDS011;72459;50.110;8.750;2023-09-18T15:02:12;4.22;;;1.20;;
82727;SDS011;72459;50.110;8.750;2023-09-18T15:04:40;4.22;;;1.50;;
82727;SDS011;72459;50.110;8.750;2023-09-18T15:07:05;3.83;;;1.30;;
82727;SDS011;72459;50.110;8.750;2023-09-18T15:09:31;3.28;;;1.25;;
82727;SDS011;72459;50.110;8.750;2023-09-18T15:11:57;2.08;;;1.17;;
82727;SDS011;72459;50.110;8.750;2023-09-18T15:14:22;6.35;;;1.67;;
82727;SDS011;72459;50.110;8.750;2023-09-18T15:16:48;3.97;;;1.48;;
82727;SDS011;72459;50.110;8.750;2023-09-18T15:19:14;5.97;;;1.38;;
82727;SDS011;72459;50.110;8.750;2023-09-18T15:21:41;3.97;;;1.80;;